Time;durP1;ratioP1;P1;durP2;ratioP2;P2;SDS_P1;SDS_P2;PMS_P1;PMS_P2;Temp;Humidity;BMP_temperature;BMP_pressure;BME280_temperature;BME280_humidity;BME280_pressure;Samples;Min_cycle;Max_cycle;Signal;HPM_P1;HPM_P2
2021/04/16 00:01:26;;;;;;;2.33;0.93;;;25.20;73.00;;;;;;4983043;28;20250;-90
2021/04/16 00:03:57;;;;;;;1.57;0.93;;;25.20;74.40;;;;;;4984251;28;20227;-90
2021/04/16 00:06:28;;;;;;;2.53;1.00;;;25.20;76.30;;;;;;4987596;28;20211;-89
2021/04/16 00:08:59;;;;;;;1.17;0.80;;;25.30;75.60;;;;;;4985477;28;20203;-89
2021/04/16 00:11:30;;;;;;;1.23;0.70;;;25.40;74.60;;;;;;4980201;28;20231;-89
2021/04/16 00:14:01;;;;;;;1.13;0.83;;;25.50;75.90;;;;;;4980038;28;20226;-90
2021/04/16 00:16:32;;;;;;;1.60;0.90;;;25.40;74.70;;;;;;4979182;28;20615;-89
2021/04/16 00:19:02;;;;;;;2.53;1.13;;;25.20;76.00;;;;;;4979750;28;20207;-89
2021/04/16 00:21:33;;;;;;;1.37;1.00;;;25.00;75.40;;;;;;4981294;28;20211;-89
2021/04/16 00:24:03;;;;;;;1.10;0.77;;;25.10;74.90;;;;;;4981619;28;20199;-90
2021/04/16 00:26:34;;;;;;;1.73;0.90;;;25.10;75.40;;;;;;4983877;28;20229;-90
2021/04/16 00:29:04;;;;;;;1.10;1.00;;;25.20;74.40;;;;;;4981673;28;20203;-89
2021/04/16 00:31:34;;;;;;;1.83;1.17;;;25.10;74.90;;;;;;4984199;28;20234;-91
2021/04/16 00:34:04;;;;;;;2.13;1.20;;;25.10;74.50;;;;;;4997006;28;20199;-89
2021/04/16 00:36:36;;;;;;;4.30;1.17;;;25.10;75.90;;;;;;4997302;28;20260;-90
2021/04/16 00:39:06;;;;;;;2.53;1.10;;;25.10;76.60;;;;;;4989651;28;20215;-90
2021/04/16 00:41:37;;;;;;;1.40;1.00;;;25.20;76.50;;;;;;4977478;28;20273;-89
2021/04/16 00:44:07;;;;;;;1.57;1.00;;;25.00;76.00;;;;;;4978823;28;20199;-91
2021/04/16 00:46:44;;;;;;;2.47;1.20;;;24.90;77.40;;;;;;4977780;28;20211;-90
2021/04/16 00:49:19;;;;;;;3.90;1.50;;;24.70;77.80;;;;;;4978106;28;20297;-89
2021/04/16 00:51:53;;;;;;;2.57;1.37;;;24.70;76.70;;;;;;4979217;28;20245;-90
2021/04/16 00:54:25;;;;;;;4.37;1.27;;;24.70;79.30;;;;;;4976619;28;20203;-90
2021/04/16 00:56:56;;;;;;;2.93;1.10;;;24.70;77.70;;;;;;4979525;28;20266;-89
2021/04/16 00:59:29;;;;;;;1.63;1.17;;;24.80;76.60;;;;;;4976816;28;20219;-88
2021/04/16 01:02:00;;;;;;;2.23;1.03;;;24.90;77.10;;;;;;4979879;28;20210;-88
2021/04/16 01:04:32;;;;;;;3.57;1.00;;;24.80;75.90;;;;;;4979418;28;20222;-90
2021/04/16 01:07:07;;;;;;;2.67;1.00;;;24.80;76.00;;;;;;4978570;28;20211;-88
2021/04/16 01:09:37;;;;;;;1.37;1.00;;;25.00;76.30;;;;;;4980047;28;20275;-89
2021/04/16 01:12:13;;;;;;;6.13;2.00;;;25.10;75.50;;;;;;4978849;28;20207;-89
2021/04/16 01:14:48;;;;;;;3.17;1.30;;;25.40;73.60;;;;;;4977655;28;20222;-89
2021/04/16 01:17:21;;;;;;;1.90;0.87;;;25.70;72.60;;;;;;4979930;28;20273;-90
2021/04/16 01:19:57;;;;;;;2.30;0.90;;;25.70;69.50;;;;;;4979782;28;20291;-89
2021/04/16 01:22:35;;;;;;;1.50;0.83;;;25.90;69.70;;;;;;4979766;28;20214;-89
2021/04/16 01:25:10;;;;;;;2.43;1.30;;;25.80;68.70;;;;;;4980155;28;20211;-89
2021/04/16 01:27:40;;;;;;;2.30;0.80;;;25.60;68.20;;;;;;4980590;28;20229;-90
2021/04/16 01:30:13;;;;;;;2.33;0.83;;;25.50;68.30;;;;;;4980314;28;20231;-89
2021/04/16 01:32:44;;;;;;;2.37;1.17;;;25.20;67.80;;;;;;4978708;28;20202;-90
2021/04/16 01:35:17;;;;;;;1.27;0.70;;;24.70;69.40;;;;;;4980018;28;20353;-90
2021/04/16 01:37:48;;;;;;;0.90;0.80;;;24.70;68.00;;;;;;4982165;28;20207;-91
2021/04/16 01:40:21;;;;;;;1.83;0.90;;;24.40;67.20;;;;;;4980002;28;20246;-92
2021/04/16 01:42:51;;;;;;;0.90;0.70;;;24.30;67.00;;;;;;4963212;28;20211;-90
2021/04/16 01:45:27;;;;;;;0.80;0.80;;;24.10;66.70;;;;;;4965061;29;20219;-92
2021/04/16 01:48:00;;;;;;;1.10;0.70;;;23.80;66.90;;;;;;4964890;28;20212;-92
2021/04/16 01:50:38;;;;;;;1.20;0.77;;;23.70;66.60;;;;;;4964186;28;20265;-92
2021/04/16 01:53:10;;;;;;;1.33;0.80;;;23.50;69.30;;;;;;4968866;28;20207;-91
2021/04/16 01:55:43;;;;;;;2.63;0.70;;;23.40;69.40;;;;;;4986523;28;20247;-91
2021/04/16 01:58:15;;;;;;;3.47;0.80;;;23.10;68.80;;;;;;4988868;28;20213;-90
2021/04/16 02:00:47;;;;;;;2.50;0.70;;;22.80;70.20;;;;;;4990474;28;20215;-93
2021/04/16 02:03:18;;;;;;;1.30;0.63;;;22.50;68.90;;;;;;4992200;28;20207;-91
2021/04/16 02:05:50;;;;;;;1.43;0.70;;;22.30;68.60;;;;;;4991315;28;20226;-90
2021/04/16 02:11:09;;;;;;;2.93;1.00;;;21.80;68.80;;;;;;4990290;28;20241;-91
2021/04/16 02:13:41;;;;;;;2.03;1.10;;;21.60;68.60;;;;;;4991673;28;20219;-90
2021/04/16 02:16:13;;;;;;;0.90;0.70;;;21.50;68.90;;;;;;4989931;28;20361;-92
2021/04/16 02:18:47;;;;;;;1.67;1.00;;;21.30;68.10;;;;;;4989226;28;20203;-92
2021/04/16 02:21:20;;;;;;;0.97;0.90;;;21.10;68.70;;;;;;4988228;28;20215;-89
2021/04/16 02:36:34;;;;;;;1.73;1.10;;;20.20;70.70;;;;;;4995453;28;20221;-93
2021/04/16 02:45:51;;;;;;;2.93;1.20;;;19.70;75.70;;;;;;4975134;29;20203;-92
2021/04/16 02:51:18;;;;;;;3.67;1.30;;;19.30;76.60;;;;;;4977531;28;20232;-93
2021/04/16 02:59:55;;;;;;;1.60;1.00;;;18.70;79.60;;;;;;4976801;28;20200;-91
2021/04/16 03:05:44;;;;;;;2.13;1.20;;;18.30;82.60;;;;;;4980188;28;20203;-92
2021/04/16 03:11:12;;;;;;;1.33;0.67;;;17.90;83.20;;;;;;4972444;28;20231;-92
2021/04/16 03:13:53;;;;;;;1.77;1.00;;;17.70;83.80;;;;;;4971290;28;20250;-91
2021/04/16 03:16:31;;;;;;;1.43;0.97;;;17.60;84.00;;;;;;4970365;29;20238;-93
2021/04/16 03:19:09;;;;;;;1.47;1.17;;;17.50;82.60;;;;;;4972127;29;20245;-92
2021/04/16 03:21:53;;;;;;;3.10;1.30;;;17.40;84.50;;;;;;4972592;28;20191;-91
2021/04/16 03:24:26;;;;;;;2.20;1.10;;;17.30;85.30;;;;;;4972291;28;20215;-93
2021/04/16 03:27:06;;;;;;;1.50;1.20;;;17.10;85.40;;;;;;4974545;28;20266;-93
2021/04/16 03:30:02;;;;;;;1.30;1.00;;;17.00;86.20;;;;;;4974087;28;20214;-93
2021/04/16 03:36:14;;;;;;;3.60;1.30;;;16.70;88.00;;;;;;4975010;28;20211;-92
2021/04/16 03:39:15;;;;;;;1.80;1.27;;;16.60;88.30;;;;;;4974680;28;20212;-92
2021/04/16 03:42:28;;;;;;;2.10;1.33;;;16.50;87.70;;;;;;4975898;28;20200;-91
2021/04/16 03:45:28;;;;;;;2.33;1.80;;;16.30;88.10;;;;;;4975526;28;20238;-91
2021/04/16 03:48:04;;;;;;;4.93;1.53;;;16.20;88.80;;;;;;4977490;29;20222;-89
2021/04/16 03:50:39;;;;;;;2.80;1.87;;;16.10;88.90;;;;;;4975863;28;20340;-90
2021/04/16 03:53:11;;;;;;;2.17;1.63;;;16.10;89.50;;;;;;4970704;28;20214;-91
2021/04/16 03:55:41;;;;;;;2.07;1.53;;;15.90;89.90;;;;;;4965788;28;20226;-90
2021/04/16 03:58:14;;;;;;;3.70;2.63;;;15.80;90.00;;;;;;4967717;29;20211;-90
2021/04/16 04:00:46;;;;;;;7.10;2.67;;;15.70;90.60;;;;;;4962699;28;20207;-89
2021/04/16 04:03:17;;;;;;;6.77;3.70;;;15.60;90.50;;;;;;4960777;28;20208;-91
2021/04/16 04:05:47;;;;;;;6.20;3.10;;;15.60;90.40;;;;;;4960857;29;20212;-92
2021/04/16 04:08:18;;;;;;;4.80;2.27;;;15.50;90.80;;;;;;4961057;28;20247;-91
2021/04/16 04:10:49;;;;;;;2.80;2.17;;;15.40;91.00;;;;;;4961626;29;20235;-91
2021/04/16 04:13:19;;;;;;;4.30;2.43;;;15.40;91.20;;;;;;4960317;28;20204;-92
2021/04/16 04:15:52;;;;;;;2.63;2.27;;;15.30;91.30;;;;;;4961364;29;20208;-92
2021/04/16 04:18:32;;;;;;;2.87;2.27;;;15.20;91.20;;;;;;4959219;28;20327;-91
2021/04/16 04:21:03;;;;;;;3.00;2.47;;;15.10;91.60;;;;;;4959594;28;20251;-91
2021/04/16 04:23:33;;;;;;;3.27;2.33;;;15.10;92.10;;;;;;4959463;29;20215;-92
2021/04/16 04:26:06;;;;;;;2.73;2.03;;;15.00;92.20;;;;;;4960422;28;20203;-94
2021/04/16 04:28:36;;;;;;;3.73;1.97;;;15.00;92.10;;;;;;4961426;29;20211;-91
2021/04/16 04:31:10;;;;;;;2.00;1.67;;;15.00;92.10;;;;;;4973716;28;20230;-92
2021/04/16 04:33:41;;;;;;;3.57;1.47;;;15.00;92.40;;;;;;4986757;28;20214;-92
2021/04/16 04:36:15;;;;;;;2.03;1.60;;;14.90;92.50;;;;;;4979109;28;20266;-91
2021/04/16 04:38:45;;;;;;;3.47;1.40;;;14.80;93.00;;;;;;4980168;28;20215;-91
2021/04/16 04:41:16;;;;;;;2.13;1.17;;;14.80;93.20;;;;;;4979283;28;20207;-92
2021/04/16 04:43:50;;;;;;;1.60;1.30;;;14.70;93.40;;;;;;4980467;28;20215;-91
2021/04/16 04:46:29;;;;;;;2.23;1.70;;;14.70;93.10;;;;;;4979791;28;20262;-93
2021/04/16 04:49:00;;;;;;;2.70;1.30;;;14.60;93.40;;;;;;4981210;28;20274;-92
2021/04/16 04:51:31;;;;;;;5.67;1.60;;;14.50;93.90;;;;;;4979163;28;20234;-93
2021/04/16 04:54:02;;;;;;;2.90;1.30;;;14.50;94.10;;;;;;4981941;28;20222;-91
2021/04/16 04:56:32;;;;;;;2.03;1.00;;;14.40;94.00;;;;;;4977947;28;20218;-90
2021/04/16 04:59:03;;;;;;;1.63;1.23;;;14.30;94.20;;;;;;4978197;28;20281;-91
2021/04/16 05:01:36;;;;;;;2.03;1.27;;;14.20;94.30;;;;;;4977796;28;20241;-91
2021/04/16 05:04:09;;;;;;;1.60;1.50;;;14.10;94.30;;;;;;4978793;28;20203;-91
2021/04/16 05:06:39;;;;;;;1.90;1.30;;;14.10;94.40;;;;;;4978439;28;20242;-93
2021/04/16 05:09:10;;;;;;;2.27;1.30;;;14.00;95.00;;;;;;4978983;28;20207;-91
2021/04/16 05:11:39;;;;;;;2.90;1.37;;;13.90;94.90;;;;;;4978215;28;20603;-90
2021/04/16 05:14:09;;;;;;;3.20;1.33;;;13.90;95.10;;;;;;4979336;28;20232;-91
2021/04/16 05:16:41;;;;;;;1.37;1.27;;;13.80;95.10;;;;;;4984029;28;20234;-91
2021/04/16 05:19:10;;;;;;;3.47;1.60;;;13.70;95.10;;;;;;4981793;28;20265;-91
2021/04/16 05:21:43;;;;;;;3.23;1.10;;;13.70;95.40;;;;;;4980831;28;20222;-90
2021/04/16 05:24:14;;;;;;;3.50;1.20;;;13.60;95.40;;;;;;4979320;28;20207;-92
2021/04/16 05:26:46;;;;;;;1.87;1.37;;;13.60;95.40;;;;;;4996987;28;20237;-91
2021/04/16 05:29:20;;;;;;;2.07;1.33;;;13.50;95.80;;;;;;4997549;28;20251;-91
2021/04/16 05:31:53;;;;;;;3.03;1.30;;;13.50;96.10;;;;;;4994274;28;20246;-91
2021/04/16 05:34:30;;;;;;;1.73;1.10;;;13.50;96.10;;;;;;4988340;28;20203;-91
2021/04/16 05:37:00;;;;;;;1.60;1.20;;;13.40;96.30;;;;;;4988732;28;20214;-92
2021/04/16 05:39:31;;;;;;;4.27;1.80;;;13.30;96.30;;;;;;4988487;28;20210;-92
2021/04/16 05:42:01;;;;;;;2.10;1.40;;;13.40;96.60;;;;;;4988284;28;20217;-91
2021/04/16 05:44:32;;;;;;;1.73;1.13;;;13.30;96.40;;;;;;4990617;28;20217;-92
2021/04/16 05:47:04;;;;;;;2.80;1.50;;;13.30;96.60;;;;;;4984530;28;20254;-93
2021/04/16 05:49:35;;;;;;;3.73;1.10;;;13.20;96.80;;;;;;4980512;28;20639;-92
2021/04/16 05:52:05;;;;;;;2.00;1.20;;;13.20;96.70;;;;;;4980292;28;20611;-92
2021/04/16 05:54:39;;;;;;;3.30;1.40;;;13.20;96.90;;;;;;4978883;28;20226;-92
2021/04/16 05:57:10;;;;;;;2.77;1.47;;;13.10;97.20;;;;;;4979689;28;20207;-91
2021/04/16 05:59:42;;;;;;;4.13;1.60;;;13.10;97.50;;;;;;4978051;28;20218;-91
2021/04/16 06:02:28;;;;;;;3.93;2.10;;;13.00;97.80;;;;;;4977666;28;20207;-92
2021/04/16 06:05:00;;;;;;;2.77;1.50;;;13.00;97.90;;;;;;4978275;28;20290;-91
2021/04/16 06:07:31;;;;;;;4.17;1.30;;;12.90;98.10;;;;;;4977351;28;20218;-91
2021/04/16 06:10:02;;;;;;;3.63;1.80;;;12.90;98.30;;;;;;4977695;28;20624;-90
2021/04/16 06:12:34;;;;;;;3.00;1.60;;;12.90;98.30;;;;;;4976162;28;20603;-90
2021/04/16 06:15:05;;;;;;;3.53;1.73;;;12.80;98.40;;;;;;4976452;28;20246;-89
2021/04/16 06:17:37;;;;;;;4.50;1.53;;;12.80;98.90;;;;;;4977627;28;20211;-90
2021/04/16 06:20:09;;;;;;;3.37;1.83;;;12.70;99.00;;;;;;4977433;28;20568;-90
2021/04/16 06:22:40;;;;;;;2.73;1.50;;;12.70;99.00;;;;;;4975707;28;20214;-91
2021/04/16 06:25:12;;;;;;;2.40;1.63;;;12.60;99.60;;;;;;4978178;28;20280;-91
2021/04/16 06:27:43;;;;;;;3.50;1.70;;;12.60;99.20;;;;;;4995042;28;20293;-90
2021/04/16 06:30:15;;;;;;;2.40;1.63;;;12.60;99.50;;;;;;4996967;28;20206;-91
2021/04/16 06:32:48;;;;;;;4.37;1.90;;;12.60;99.90;;;;;;4995233;28;20214;-91
2021/04/16 06:35:18;;;;;;;3.40;1.80;;;12.60;99.90;;;;;;4995122;28;20236;-92
2021/04/16 06:37:49;;;;;;;2.93;1.50;;;12.50;99.90;;;;;;4995177;28;20229;-93
2021/04/16 06:40:18;;;;;;;1.87;1.57;;;12.50;99.90;;;;;;4995639;28;20207;-92
2021/04/16 06:42:50;;;;;;;2.20;1.63;;;12.50;99.90;;;;;;4997808;28;20230;-93
2021/04/16 06:45:24;;;;;;;2.40;1.50;;;12.40;99.90;;;;;;4982272;28;20653;-92
2021/04/16 06:47:59;;;;;;;2.53;1.87;;;12.30;99.90;;;;;;4979294;28;20209;-93
2021/04/16 06:50:32;;;;;;;2.43;1.60;;;12.30;99.90;;;;;;4979456;28;20314;-92
2021/04/16 06:53:10;;;;;;;4.73;1.80;;;12.20;99.90;;;;;;4979115;28;20215;-90
2021/04/16 06:55:54;;;;;;;1.67;1.43;;;12.20;99.90;;;;;;4980087;28;20297;-92
2021/04/16 06:58:29;;;;;;;2.10;1.40;;;12.10;99.90;;;;;;4983839;28;20202;-92
2021/04/16 07:01:10;;;;;;;1.83;1.60;;;12.10;99.90;;;;;;4979359;28;20242;-91
2021/04/16 07:03:45;;;;;;;2.50;1.40;;;12.00;99.90;;;;;;4978597;28;20246;-92
2021/04/16 07:06:22;;;;;;;3.53;1.40;;;12.00;99.90;;;;;;4978617;28;20206;-91
2021/04/16 07:08:58;;;;;;;2.00;1.37;;;11.90;99.90;;;;;;4978318;28;20262;-91
2021/04/16 07:11:31;;;;;;;3.00;1.50;;;11.90;99.90;;;;;;4977696;28;20234;-92
2021/04/16 07:14:04;;;;;;;1.53;1.20;;;11.90;99.90;;;;;;4978126;28;20223;-91
2021/04/16 07:16:37;;;;;;;2.20;1.57;;;11.80;99.90;;;;;;4979456;28;20322;-92
2021/04/16 07:19:15;;;;;;;4.73;1.60;;;11.80;99.90;;;;;;4981640;28;20210;-90
2021/04/16 07:21:46;;;;;;;3.37;1.60;;;11.70;99.90;;;;;;4979894;28;20630;-90
2021/04/16 07:24:19;;;;;;;3.60;1.50;;;11.70;99.90;;;;;;4982339;28;20215;-91
2021/04/16 07:26:52;;;;;;;2.07;1.33;;;11.60;99.90;;;;;;4979745;28;20249;-89
2021/04/16 07:29:43;;;;;;;1.87;1.30;;;11.60;99.90;;;;;;4980800;28;20246;-90
2021/04/16 07:32:36;;;;;;;2.33;1.33;;;11.60;99.90;;;;;;4982735;28;20266;-90
2021/04/16 07:35:33;;;;;;;2.00;1.20;;;11.60;99.90;;;;;;4985310;28;20213;-90
2021/04/16 07:38:08;;;;;;;3.27;1.20;;;11.50;99.90;;;;;;4986002;28;20227;-91
2021/04/16 07:40:43;;;;;;;2.33;1.40;;;11.50;99.90;;;;;;4984748;28;20206;-91
2021/04/16 07:43:37;;;;;;;3.07;1.10;;;11.40;99.90;;;;;;4978790;28;20756;-91
2021/04/16 07:46:22;;;;;;;1.53;1.10;;;11.40;99.90;;;;;;4979802;28;20203;-91
2021/04/16 07:48:53;;;;;;;1.57;1.17;;;11.30;99.90;;;;;;4981740;28;20210;-91
2021/04/16 07:51:33;;;;;;;2.00;1.30;;;11.20;99.90;;;;;;4994169;28;20234;-91
2021/04/16 07:54:15;;;;;;;1.97;1.20;;;11.20;99.90;;;;;;4997053;28;20221;-92
2021/04/16 07:56:46;;;;;;;2.63;1.30;;;11.20;99.90;;;;;;4967961;29;20216;-92
2021/04/16 07:59:18;;;;;;;2.57;1.20;;;11.10;99.90;;;;;;4960808;28;20207;-91
2021/04/16 08:01:50;;;;;;;1.97;1.20;;;11.10;99.90;;;;;;4960878;28;20226;-91
2021/04/16 08:04:35;;;;;;;2.10;1.30;;;11.00;99.90;;;;;;4960305;28;20238;-92
2021/04/16 08:07:20;;;;;;;2.93;1.10;;;11.00;99.90;;;;;;4959269;28;20215;-90
2021/04/16 08:09:51;;;;;;;8.50;1.67;;;10.90;99.90;;;;;;4959115;29;20234;-91
2021/04/16 08:12:27;;;;;;;1.73;1.23;;;10.80;99.90;;;;;;4964153;28;20704;-91
2021/04/16 08:15:24;;;;;;;2.53;1.50;;;10.80;99.90;;;;;;4967628;29;20215;-90
2021/04/16 08:17:55;;;;;;;2.20;1.40;;;10.70;99.90;;;;;;4965030;29;20292;-90
2021/04/16 08:20:31;;;;;;;1.50;1.20;;;10.70;99.90;;;;;;4966116;28;20601;-90
2021/04/16 08:23:15;;;;;;;2.13;1.40;;;10.60;99.90;;;;;;4975235;28;20246;-90
2021/04/16 08:25:51;;;;;;;2.07;1.23;;;10.60;99.90;;;;;;4942680;29;20215;-91
2021/04/16 08:28:28;;;;;;;2.63;1.27;;;10.50;99.90;;;;;;4959740;28;20222;-90
2021/04/16 08:31:03;;;;;;;3.63;1.63;;;10.40;99.90;;;;;;4961138;29;20676;-93
2021/04/16 08:33:40;;;;;;;2.30;1.57;;;10.40;99.90;;;;;;4967130;28;20214;-90
2021/04/16 08:36:21;;;;;;;3.67;1.20;;;10.30;99.90;;;;;;4979839;28;20214;-91
2021/04/16 08:39:05;;;;;;;1.63;1.40;;;10.30;99.90;;;;;;4984594;28;20191;-91
2021/04/16 08:41:44;;;;;;;2.80;1.60;;;10.20;99.90;;;;;;4969199;28;20238;-92
2021/04/16 08:44:15;;;;;;;3.93;1.40;;;10.20;99.90;;;;;;4960940;28;20315;-91
2021/04/16 08:46:48;;;;;;;1.50;1.40;;;10.20;99.90;;;;;;4960781;28;20220;-92
2021/04/16 08:49:23;;;;;;;2.77;1.50;;;10.10;99.90;;;;;;4959033;28;20207;-92
2021/04/16 08:52:00;;;;;;;2.00;1.20;;;10.00;99.90;;;;;;4959824;28;20739;-92
2021/04/16 08:54:35;;;;;;;2.03;1.57;;;10.00;99.90;;;;;;4958756;29;20215;-91
2021/04/16 08:57:11;;;;;;;3.90;1.50;;;10.00;99.90;;;;;;4958306;29;20250;-92
2021/04/16 08:59:54;;;;;;;1.40;1.20;;;10.00;99.90;;;;;;4958077;28;20739;-91
2021/04/16 09:02:32;;;;;;;1.50;1.33;;;10.00;99.90;;;;;;4957481;28;20627;-91
2021/04/16 09:05:15;;;;;;;2.37;1.60;;;9.90;99.90;;;;;;4956150;28;20695;-91
2021/04/16 09:08:22;;;;;;;2.00;1.40;;;9.80;99.90;;;;;;4956572;28;20572;-91
2021/04/16 09:10:56;;;;;;;1.63;1.40;;;9.80;99.90;;;;;;4957107;28;20215;-91
2021/04/16 09:13:57;;;;;;;1.87;1.17;;;9.70;99.90;;;;;;4956514;28;20215;-91
2021/04/16 09:16:48;;;;;;;3.10;1.33;;;9.70;99.90;;;;;;4958109;28;20750;-90
2021/04/16 09:19:44;;;;;;;1.80;1.43;;;9.70;99.90;;;;;;4957160;28;20231;-90
2021/04/16 09:22:48;;;;;;;2.00;1.40;;;9.70;99.90;;;;;;4946496;29;20262;-91
2021/04/16 09:25:47;;;;;;;2.50;1.10;;;9.60;99.90;;;;;;4958304;28;20270;-90
2021/04/16 09:28:35;;;;;;;2.80;1.60;;;9.60;99.90;;;;;;4960014;28;20330;-90
2021/04/16 09:31:27;;;;;;;3.10;1.50;;;9.50;99.90;;;;;;4957002;28;20750;-91
2021/04/16 09:34:15;;;;;;;3.47;1.40;;;9.50;99.90;;;;;;4957373;28;20270;-90
2021/04/16 09:36:49;;;;;;;3.57;1.27;;;9.40;99.90;;;;;;4956192;29;20222;-91
2021/04/16 09:39:37;;;;;;;1.97;1.60;;;9.40;99.90;;;;;;4956955;28;20298;-91
2021/04/16 09:42:34;;;;;;;2.00;1.37;;;9.40;99.90;;;;;;4956768;28;20554;-91
2021/04/16 09:45:11;;;;;;;1.30;1.20;;;9.40;99.90;;;;;;4957124;28;20301;-91
2021/04/16 09:47:51;;;;;;;1.73;1.40;;;9.30;99.90;;;;;;4957541;28;20249;-91
2021/04/16 09:50:38;;;;;;;1.53;1.20;;;9.30;99.90;;;;;;4970746;28;20206;-92
2021/04/16 09:53:29;;;;;;;1.97;1.40;;;9.20;99.90;;;;;;4975411;28;20233;-91
2021/04/16 09:56:19;;;;;;;4.53;1.53;;;9.20;99.90;;;;;;4976127;28;20234;-92
2021/04/16 09:59:12;;;;;;;1.80;1.20;;;9.20;99.90;;;;;;4975867;28;20280;-91
2021/04/16 10:02:23;;;;;;;2.87;1.50;;;9.10;99.90;;;;;;4976315;28;20223;-91
2021/04/16 10:05:01;;;;;;;1.77;1.10;;;9.10;99.90;;;;;;4981268;28;20252;-91
2021/04/16 10:07:39;;;;;;;2.60;1.50;;;9.00;99.90;;;;;;4991543;28;20202;-87
2021/04/16 10:10:16;;;;;;;1.20;1.10;;;9.00;99.90;;;;;;4990452;28;20652;-87
2021/04/16 10:12:47;;;;;;;1.27;1.17;;;9.00;99.90;;;;;;4988454;28;20293;-90
2021/04/16 10:15:24;;;;;;;1.43;1.30;;;9.00;99.90;;;;;;4997123;28;20237;-91
2021/04/16 10:18:01;;;;;;;2.13;1.53;;;9.00;99.90;;;;;;4989870;28;20207;-90
2021/04/16 10:20:40;;;;;;;1.20;1.10;;;8.90;99.90;;;;;;4962514;29;20219;-91
2021/04/16 10:23:23;;;;;;;2.20;1.53;;;8.90;99.90;;;;;;4960940;28;20215;-91
2021/04/16 12:38:34;;;;;;;1.63;1.20;;;7.60;99.90;;;;;;4975116;28;20222;-90
2021/04/16 12:41:08;;;;;;;2.87;1.40;;;7.50;99.90;;;;;;4967541;28;20241;-91
2021/04/16 12:43:39;;;;;;;1.87;1.60;;;7.50;99.90;;;;;;4963752;28;20221;-91
2021/04/16 12:46:10;;;;;;;3.07;1.60;;;7.50;99.90;;;;;;4962572;28;20215;-92
2021/04/16 12:48:40;;;;;;;1.40;1.30;;;7.60;99.90;;;;;;4968004;28;20212;-91
2021/04/16 12:51:12;;;;;;;5.67;1.60;;;7.50;99.90;;;;;;4973666;28;20204;-96
2021/04/16 12:53:43;;;;;;;1.90;1.50;;;7.50;99.90;;;;;;4978402;28;20214;-88
2021/04/16 12:56:17;;;;;;;6.00;1.47;;;7.50;99.90;;;;;;4969530;28;20221;-90
2021/04/16 12:58:49;;;;;;;2.17;1.40;;;7.40;99.90;;;;;;4968581;28;20210;-90
2021/04/16 13:01:27;;;;;;;4.70;1.40;;;7.30;99.90;;;;;;4969672;28;20214;-90
2021/04/16 13:03:59;;;;;;;1.90;1.40;;;7.30;99.90;;;;;;4972345;28;20211;-90
2021/04/16 13:06:35;;;;;;;1.17;1.03;;;7.20;99.90;;;;;;4968600;28;20318;-90
2021/04/16 13:09:09;;;;;;;1.50;1.40;;;7.20;99.90;;;;;;4962382;28;20211;-89
2021/04/16 13:11:40;;;;;;;1.40;1.30;;;7.20;99.90;;;;;;4959454;28;20246;-91
2021/04/16 13:14:11;;;;;;;3.17;1.20;;;7.20;99.90;;;;;;4958687;28;20273;-90
2021/04/16 13:16:41;;;;;;;5.17;1.50;;;7.30;99.90;;;;;;4958463;28;20266;-90
2021/04/16 13:19:24;;;;;;;1.83;1.50;;;7.20;99.90;;;;;;4957904;28;20211;-91
2021/04/16 13:21:59;;;;;;;2.60;1.30;;;7.20;99.90;;;;;;4957241;28;20211;-90
2021/04/16 13:24:31;;;;;;;2.00;1.30;;;7.20;99.90;;;;;;4957672;29;20298;-90
2021/04/16 13:27:03;;;;;;;3.43;1.37;;;7.20;99.90;;;;;;4957860;28;20230;-91
2021/04/16 13:29:33;;;;;;;3.40;1.30;;;7.30;99.90;;;;;;4958124;28;20218;-90
2021/04/16 13:32:04;;;;;;;1.93;1.30;;;7.30;99.90;;;;;;4956739;28;20263;-91
2021/04/16 13:34:38;;;;;;;2.90;1.30;;;7.30;99.90;;;;;;4957556;28;20724;-91
2021/04/16 13:37:12;;;;;;;3.13;1.60;;;7.30;99.90;;;;;;4957132;28;20646;-91
2021/04/16 13:39:45;;;;;;;2.13;1.50;;;7.30;99.90;;;;;;4973406;28;20245;-90
2021/04/16 13:42:17;;;;;;;2.20;1.37;;;7.20;99.90;;;;;;4960163;28;20289;-90
2021/04/16 13:44:47;;;;;;;1.97;1.43;;;7.30;99.90;;;;;;4977397;28;20210;-91
2021/04/16 13:47:24;;;;;;;2.70;1.50;;;7.30;99.90;;;;;;4977261;28;20581;-91
2021/04/16 13:49:58;;;;;;;2.80;1.30;;;7.30;99.90;;;;;;4978955;28;20298;-90
2021/04/16 13:52:29;;;;;;;2.10;1.40;;;7.30;99.90;;;;;;4982275;28;20239;-89
2021/04/16 13:55:01;;;;;;;1.67;1.30;;;7.30;99.90;;;;;;4982858;28;20555;-90
2021/04/16 13:57:31;;;;;;;2.80;1.30;;;7.30;99.90;;;;;;4982916;28;20328;-90
2021/04/16 14:00:02;;;;;;;1.90;1.40;;;7.30;99.90;;;;;;4982603;28;20208;-90
2021/04/16 14:02:35;;;;;;;2.73;1.73;;;7.30;99.90;;;;;;4985260;28;20260;-91
2021/04/16 14:05:09;;;;;;;3.43;1.80;;;7.40;99.90;;;;;;4982771;28;20216;-91
2021/04/16 14:07:39;;;;;;;2.63;1.40;;;7.40;99.90;;;;;;4983054;28;20660;-89
2021/04/16 14:10:13;;;;;;;1.80;1.30;;;7.40;99.90;;;;;;4963769;28;20217;-90
2021/04/16 14:12:44;;;;;;;3.27;1.60;;;7.50;99.90;;;;;;4962533;28;20231;-90
2021/04/16 14:15:16;;;;;;;2.60;1.97;;;7.50;99.90;;;;;;4963259;28;20225;-90
2021/04/16 14:17:47;;;;;;;1.93;1.30;;;7.50;99.90;;;;;;4963283;28;20294;-90
2021/04/16 14:20:23;;;;;;;1.73;1.57;;;7.60;99.90;;;;;;4963230;28;20228;-90
2021/04/16 14:22:53;;;;;;;3.83;1.60;;;7.60;99.90;;;;;;4963395;28;20297;-91
2021/04/16 14:25:28;;;;;;;2.17;1.40;;;7.60;99.90;;;;;;4963527;29;20227;-90
2021/04/16 14:27:58;;;;;;;2.20;1.60;;;7.70;99.90;;;;;;4969606;28;20211;-90
2021/04/16 14:30:32;;;;;;;3.87;1.70;;;7.70;99.90;;;;;;4970551;28;20210;-90
2021/04/16 14:33:05;;;;;;;3.53;1.80;;;7.80;99.90;;;;;;4964634;28;20258;-91
2021/04/16 14:35:37;;;;;;;3.40;1.80;;;7.90;99.90;;;;;;4982518;28;20207;-91
2021/04/16 14:38:08;;;;;;;4.70;1.40;;;7.90;99.90;;;;;;4983598;28;20305;-91
2021/04/16 14:40:40;;;;;;;5.27;1.70;;;7.90;99.90;;;;;;4982921;28;20603;-91
2021/04/16 14:43:13;;;;;;;2.73;2.00;;;8.00;99.90;;;;;;4982327;28;20213;-91
2021/04/16 14:45:46;;;;;;;3.63;1.80;;;8.00;99.90;;;;;;4982908;28;20207;-90
2021/04/16 14:48:17;;;;;;;2.03;1.43;;;8.10;99.90;;;;;;4982067;28;20573;-92
2021/04/16 14:50:48;;;;;;;1.23;1.10;;;8.20;99.90;;;;;;4982853;28;20594;-91
2021/04/16 14:53:22;;;;;;;1.70;1.17;;;8.20;99.90;;;;;;4992243;28;20238;-91
2021/04/16 14:55:59;;;;;;;3.23;1.30;;;8.30;99.90;;;;;;4999360;28;20209;-90
2021/04/16 14:58:34;;;;;;;1.30;1.10;;;8.50;99.90;;;;;;4997904;28;20211;-91
2021/04/16 15:01:05;;;;;;;2.80;1.17;;;8.60;99.90;;;;;;4989868;28;20224;-91
2021/04/16 15:03:36;;;;;;;1.67;1.10;;;8.70;99.90;;;;;;4984633;28;20210;-91
2021/04/16 15:06:10;;;;;;;2.67;1.30;;;8.80;99.90;;;;;;4984557;28;20215;-90
2021/04/16 15:08:45;;;;;;;3.43;1.40;;;9.00;99.90;;;;;;4980556;28;20265;-90
2021/04/16 15:11:20;;;;;;;2.83;1.23;;;9.20;99.90;;;;;;4981448;28;20229;-90
2021/04/16 15:13:51;;;;;;;3.03;1.17;;;9.40;99.90;;;;;;4980713;28;20365;-91
2021/04/16 15:16:23;;;;;;;1.97;1.43;;;9.60;99.90;;;;;;4981918;28;20261;-91
2021/04/16 15:18:54;;;;;;;2.10;1.13;;;9.80;99.90;;;;;;4981711;28;20210;-90
2021/04/16 15:21:25;;;;;;;6.43;1.80;;;10.00;99.90;;;;;;4980827;28;20301;-90
2021/04/16 15:23:56;;;;;;;2.10;1.37;;;10.20;99.90;;;;;;4979565;28;20258;-91
2021/04/16 15:26:29;;;;;;;2.23;1.50;;;10.40;99.90;;;;;;4986913;28;20211;-91
2021/04/16 15:29:02;;;;;;;3.50;1.20;;;10.50;99.90;;;;;;4984561;28;20284;-91
2021/04/16 15:31:40;;;;;;;1.93;1.27;;;10.60;99.90;;;;;;4972436;28;20207;-90
2021/04/16 15:48:09;;;;;;;1.57;1.10;;;11.50;99.90;;;;;;4965054;28;20204;-91
2021/04/16 15:50:45;;;;;;;1.30;1.20;;;11.70;99.90;;;;;;4964031;28;20235;-91
2021/04/16 15:53:16;;;;;;;1.83;1.00;;;11.70;99.90;;;;;;4965028;28;20307;-91
2021/04/16 15:55:47;;;;;;;1.57;0.93;;;11.90;99.90;;;;;;4976134;28;20207;-92
2021/04/16 15:58:21;;;;;;;3.10;1.20;;;12.00;99.90;;;;;;4988493;28;20206;-90
2021/04/16 16:00:53;;;;;;;2.40;1.10;;;12.20;99.90;;;;;;4986715;28;20243;-91
2021/04/16 16:03:24;;;;;;;1.90;1.00;;;12.30;99.90;;;;;;4979074;28;20224;-91
2021/04/16 16:05:55;;;;;;;3.60;1.47;;;12.50;99.90;;;;;;4960732;29;20386;-90
2021/04/16 16:08:27;;;;;;;2.10;1.53;;;12.60;99.90;;;;;;4960062;29;20215;-92
2021/04/16 16:10:58;;;;;;;1.57;1.20;;;12.80;99.90;;;;;;4963239;28;20733;-90
2021/04/16 16:13:36;;;;;;;6.43;1.30;;;12.80;99.90;;;;;;4960776;28;20260;-90
2021/04/16 16:16:13;;;;;;;4.57;1.20;;;13.00;99.90;;;;;;4960801;28;20216;-91
2021/04/16 16:18:45;;;;;;;3.70;1.10;;;13.10;99.90;;;;;;4957698;29;20215;-92
2021/04/16 16:21:17;;;;;;;3.70;1.30;;;13.30;99.90;;;;;;4957276;29;20234;-91
2021/04/16 16:23:49;;;;;;;2.13;1.10;;;13.40;99.90;;;;;;4958672;29;20228;-91
2021/04/16 16:26:25;;;;;;;4.27;1.20;;;13.60;99.90;;;;;;4958380;29;20238;-91
2021/04/16 16:29:00;;;;;;;7.40;1.50;;;13.80;99.90;;;;;;4958086;29;20211;-91
2021/04/16 16:31:32;;;;;;;3.23;1.13;;;14.00;99.90;;;;;;4957558;29;20286;-92
2021/04/16 16:34:03;;;;;;;1.50;1.13;;;14.20;99.90;;;;;;4959001;29;20242;-91
2021/04/16 16:36:33;;;;;;;5.17;1.07;;;14.30;99.90;;;;;;4959153;28;20246;-91
2021/04/16 16:39:05;;;;;;;2.00;1.20;;;14.40;99.90;;;;;;4958392;28;20212;-91